Nearby METAR Reports

 

LIBG - Grottaglie(Civ/A, Italy
Distance from station: СИ 13km
Актуализирано: 18/05/2021 19:50
NOT Current
Тихо и ясно
Тихо и ясно
 Вятър от Ю
Вятър: Ю 9 km/h
Температура: 19°C
Точка на оросяване: 12°C
Влажност: 64%
Барометър: 1015 hPa
Метео сводка: Тихо и ясно
Visibility: greater than 10 km
2021/05/18 17:50 LIBG 181750Z 17005KT 130V190 CAVOK 19/12 Q1015
LIBH - Marina Di Ginosa, Italy
Distance from station: З 33km
Актуализирано: 18/05/2021 18:55
NOT Current
Тихо и ясно
Тихо и ясно
 Вятър от Ю
Вятър: Ю 22 km/h
Температура: 22°C
Точка на оросяване: 18°C
Влажност: 78%
Барометър: 1014 hPa
Метео сводка: Тихо и ясно
Visibility: greater than 10 km
2021/05/18 16:55 LIBH 181655Z 19012KT CAVOK 22/18 Q1014 RMK BKN BKN200 QUK 2 QUL 1 SW VIS MAR 25 KM VIS MIN 9999
 
LIBV - Gioia Del Colle, Italy
Distance from station: СЗ 45km
Актуализирано: 19/05/2021 00:55
NOT Current
Тихо и ясно
Тихо и ясно
 Вятър от ЮЮИ
Вятър: ЮЮИ 17 km/h
Температура: 13°C
Точка на оросяване: 11°C
Влажност: 88%
Барометър: 1014 hPa
Метео сводка: Тихо и ясно
Visibility: greater than 10 km
2021/05/18 22:55 LIBV 182255Z 16009KT CAVOK 13/11 Q1014 RMK SCT SCT200 VIS MIN 9999 WIND THR32 16009KT WIND THR14 16008KT BLU
LIBR - Brindisi/Casale, Italy
Distance from station: ИСИ 62km
Актуализирано: 19/05/2021 02:20
Тихо и ясно
Тихо и ясно
 Вятър от ЮЮЗ
Вятър: ЮЮЗ 17 km/h
Температура: 17°C
Точка на оросяване: 12°C
Влажност: 73%
Барометър: 1014 hPa
Метео сводка: Тихо и ясно
Visibility: greater than 10 km
2021/05/19 00:20 LIBR 190020Z 20009KT CAVOK 17/12 Q1014
 
LIBN - Lecce (it-Afb), Italy
Distance from station: ИЮИ 79km
Актуализирано: 19/05/2021 00:55
NOT Current
Тихо и ясно
Тихо и ясно
 Вятър от varies
Вятър: varies 6 km/h
Температура: 13°C
Точка на оросяване: 13°C
Влажност: 100%
Барометър: 1015 hPa
Метео сводка: Тихо и ясно
Visibility: greater than 10 km
2021/05/18 22:55 LIBN 182255Z VRB03KT CAVOK 13/13 Q1015 RMK SKC VIS MIN 9999 WIND THR14 VRB02KT WIND THR32 VRB03KT BLU
LIBD - Bari/Palese Macc, Italy
Distance from station: ССЗ 85km
Актуализирано: 19/05/2021 02:20
Тихо и ясно
Тихо и ясно
 Вятър от Ю
Вятър: Ю 11 km/h
Температура: 15°C
Точка на оросяване: 11°C
Влажност: 77%
Барометър: 1012 hPa
Метео сводка: Тихо и ясно
Visibility: greater than 10 km
2021/05/19 00:20 LIBD 190020Z 19006KT CAVOK 15/11 Q1012